createdAt,value
2022-09-16T00:00:47.409Z,12.30
2022-09-16T00:06:03.144Z,12.10
2022-09-16T00:10:49.354Z,12.10
2022-09-16T00:16:10.398Z,12.10
2022-09-16T00:21:00.848Z,12.10
2022-09-16T00:26:00.449Z,12.10
2022-09-16T00:30:50.213Z,12.00
2022-09-16T00:35:52.214Z,11.90
2022-09-16T00:40:56.569Z,11.70
2022-09-16T00:46:06.364Z,11.70
2022-09-16T00:50:51.934Z,11.60
2022-09-16T00:55:40.445Z,11.50
2022-09-16T01:00:26.680Z,11.70
2022-09-16T01:05:26.618Z,11.70
2022-09-16T01:10:31.683Z,11.50
2022-09-16T01:15:37.126Z,11.40
2022-09-16T01:21:01.394Z,11.20
2022-09-16T01:26:02.254Z,11.10
2022-09-16T01:31:11.026Z,11.10
2022-09-16T01:36:44.376Z,11.20
2022-09-16T01:41:46.996Z,11.20
2022-09-16T01:47:01.823Z,11.20
2022-09-16T01:52:10.806Z,11.20
2022-09-16T01:57:11.783Z,11.20
2022-09-16T02:02:24.036Z,11.20
2022-09-16T02:07:42.687Z,11.40
2022-09-16T02:12:31.384Z,11.40
2022-09-16T02:17:27.700Z,11.50
2022-09-16T02:22:53.010Z,11.50
2022-09-16T02:27:51.615Z,11.60
2022-09-16T02:32:45.522Z,11.60
2022-09-16T02:37:33.968Z,11.60
2022-09-16T02:42:38.547Z,11.70
2022-09-16T02:47:42.057Z,11.60
2022-09-16T02:52:45.846Z,11.50
2022-09-16T02:57:31.990Z,11.40
2022-09-16T03:02:19.464Z,11.50
2022-09-16T03:07:08.107Z,11.50
2022-09-16T03:12:44.167Z,11.50
2022-09-16T03:17:51.301Z,11.50
2022-09-16T03:23:24.458Z,11.40
2022-09-16T03:28:14.472Z,11.30
2022-09-16T03:33:34.252Z,11.20
2022-09-16T03:38:21.938Z,11.30
2022-09-16T03:43:20.468Z,11.30
2022-09-16T03:48:31.621Z,11.30
2022-09-16T03:53:15.423Z,11.20
2022-09-16T03:58:01.284Z,11.20
2022-09-16T04:03:09.852Z,11.20
2022-09-16T04:07:57.420Z,11.10
2022-09-16T04:12:46.025Z,11.10
2022-09-16T04:17:33.745Z,11.00
2022-09-16T04:22:18.088Z,10.90
2022-09-16T04:27:06.937Z,11.00
2022-09-16T04:31:54.603Z,11.00
2022-09-16T04:36:42.342Z,11.10
2022-09-16T04:41:29.925Z,11.20
2022-09-16T04:46:18.786Z,11.20
2022-09-16T04:51:08.479Z,11.30
2022-09-16T04:55:53.354Z,11.30
2022-09-16T05:00:41.146Z,11.30
2022-09-16T05:06:01.793Z,11.40
2022-09-16T05:10:49.547Z,11.40
2022-09-16T05:15:37.374Z,11.40
2022-09-16T05:20:27.060Z,11.50
2022-09-16T05:26:05.221Z,11.40
2022-09-16T05:30:51.443Z,11.40
2022-09-16T05:42:35.731Z,11.50
2022-09-16T05:47:36.292Z,11.60
2022-09-16T05:52:29.306Z,11.70
2022-09-16T05:57:14.983Z,11.70
2022-09-16T06:02:02.273Z,11.90
2022-09-16T06:06:51.939Z,11.80
2022-09-16T06:11:40.212Z,11.90
2022-09-16T06:16:27.188Z,12.00
2022-09-16T06:21:14.662Z,12.20
2022-09-16T06:26:05.580Z,12.10
2022-09-16T06:30:51.065Z,12.00
2022-09-16T06:35:37.716Z,12.00
2022-09-16T06:40:25.579Z,12.20
2022-09-16T06:45:16.989Z,12.20
2022-09-16T06:50:14.411Z,12.60
2022-09-16T06:55:22.782Z,12.70
2022-09-16T07:00:10.984Z,12.90
2022-09-16T07:05:02.939Z,13.00
2022-09-16T07:09:47.996Z,13.30
2022-09-16T07:14:35.335Z,13.10
2022-09-16T07:19:24.395Z,13.00
2022-09-16T07:24:13.973Z,12.90
2022-09-16T07:29:00.122Z,13.10
2022-09-16T07:33:50.149Z,13.00
2022-09-16T07:38:34.296Z,13.30
2022-09-16T07:43:23.249Z,13.60
2022-09-16T07:48:10.766Z,13.50
2022-09-16T07:53:01.273Z,13.60
2022-09-16T07:57:45.305Z,13.50
2022-09-16T08:03:07.702Z,13.70
2022-09-16T08:07:54.930Z,13.80
2022-09-16T08:12:42.728Z,14.00
2022-09-16T08:17:33.382Z,13.90
2022-09-16T08:22:19.311Z,13.90
2022-09-16T08:27:06.466Z,13.60
2022-09-16T08:31:54.723Z,13.80
2022-09-16T08:36:44.568Z,14.30
2022-09-16T08:42:03.662Z,14.80
2022-09-16T08:46:54.095Z,15.40
2022-09-16T08:51:38.354Z,16.10
2022-09-16T08:56:28.492Z,16.00
2022-09-16T09:01:48.919Z,15.40
2022-09-16T09:06:55.879Z,15.00
2022-09-16T09:11:52.864Z,14.30
2022-09-16T09:23:43.404Z,14.20
2022-09-16T09:28:56.772Z,14.20
2022-09-16T09:34:02.867Z,14.50
2022-09-16T09:39:36.134Z,14.90
2022-09-16T09:44:59.793Z,15.30
2022-09-16T09:55:26.149Z,16.00
2022-09-16T10:00:30.875Z,15.90
2022-09-16T10:05:32.588Z,15.50
2022-09-16T10:10:20.844Z,15.70
2022-09-16T10:15:23.640Z,16.00
2022-09-16T10:20:31.472Z,16.20
2022-09-16T10:25:46.839Z,16.20
2022-09-16T10:31:05.711Z,16.10
2022-09-16T10:36:13.944Z,15.50
2022-09-16T10:41:16.392Z,14.80
2022-09-16T10:46:01.781Z,13.80
2022-09-16T10:51:22.806Z,13.60
2022-09-16T11:03:53.853Z,14.00
2022-09-16T11:09:03.551Z,15.00
2022-09-16T11:14:01.346Z,15.30
2022-09-16T11:19:21.357Z,15.20
2022-09-16T11:24:40.788Z,15.90
2022-09-16T11:30:02.003Z,15.90
2022-09-16T11:40:56.028Z,15.20
2022-09-16T11:46:02.702Z,14.60
2022-09-16T11:51:06.795Z,14.40
2022-09-16T11:55:59.784Z,14.30
2022-09-16T12:00:44.280Z,13.90
2022-09-16T12:05:35.124Z,14.60
2022-09-16T12:11:07.553Z,15.20
2022-09-16T12:16:08.527Z,15.50
2022-09-16T12:21:28.898Z,16.10
2022-09-16T12:26:48.495Z,16.00
2022-09-16T12:32:09.699Z,16.00
2022-09-16T12:37:12.401Z,15.50
2022-09-16T12:42:32.292Z,16.70
2022-09-16T12:47:59.193Z,17.20
2022-09-16T12:53:13.038Z,17.20
2022-09-16T12:58:52.556Z,17.10
2022-09-16T13:03:40.936Z,16.90
2022-09-16T13:08:27.794Z,16.70
2022-09-16T13:13:48.712Z,16.60
2022-09-16T13:25:06.715Z,16.20
2022-09-16T13:30:52.657Z,16.20
2022-09-16T13:35:40.350Z,16.70
2022-09-16T13:41:03.222Z,16.60
2022-09-16T13:47:05.202Z,16.90
2022-09-16T13:52:14.020Z,17.00
2022-09-16T13:57:27.272Z,17.50
2022-09-16T14:02:49.189Z,16.90
2022-09-16T14:08:11.291Z,16.60
2022-09-16T14:13:31.326Z,15.70
2022-09-16T14:18:21.516Z,15.50
2022-09-16T14:23:26.301Z,15.50
2022-09-16T14:28:26.873Z,15.40
2022-09-16T14:33:17.802Z,15.50
2022-09-16T14:38:06.580Z,15.40
2022-09-16T14:43:09.355Z,15.30
2022-09-16T14:47:57.323Z,15.10
2022-09-16T14:52:42.600Z,15.30
2022-09-16T14:57:33.706Z,15.30
2022-09-16T15:02:22.651Z,15.30
2022-09-16T15:13:18.370Z,15.30
2022-09-16T15:18:19.933Z,15.30
2022-09-16T15:24:12.770Z,15.10
2022-09-16T15:34:37.521Z,15.10
2022-09-16T15:39:36.359Z,14.80
2022-09-16T15:44:58.009Z,14.70
2022-09-16T15:49:47.990Z,14.60
2022-09-16T15:54:37.773Z,14.70
2022-09-16T16:00:11.375Z,14.40
2022-09-16T16:05:15.914Z,14.20
2022-09-16T16:10:23.117Z,13.80
2022-09-16T16:15:10.509Z,13.50
2022-09-16T16:19:57.837Z,13.50
2022-09-16T16:24:45.825Z,13.20
2022-09-16T16:29:30.445Z,13.00
2022-09-16T16:34:18.859Z,13.00
2022-09-16T16:39:06.098Z,13.00
2022-09-16T16:43:55.277Z,13.00
2022-09-16T16:48:41.112Z,12.90
2022-09-16T16:53:29.636Z,13.10
2022-09-16T16:58:18.006Z,13.00
2022-09-16T17:03:06.272Z,13.00
2022-09-16T17:07:53.774Z,12.50
2022-09-16T17:12:40.783Z,12.40
2022-09-16T17:17:49.593Z,12.30
2022-09-16T17:23:05.105Z,11.90
2022-09-16T17:34:04.412Z,11.70
2022-09-16T17:39:03.768Z,11.50
2022-09-16T17:44:24.899Z,11.30
2022-09-16T17:49:17.275Z,11.20
2022-09-16T17:54:03.559Z,11.20
2022-09-16T17:58:53.587Z,11.20
2022-09-16T18:03:38.353Z,11.00
2022-09-16T18:08:26.197Z,11.00
2022-09-16T18:13:16.821Z,10.90
2022-09-16T18:18:00.768Z,10.80
2022-09-16T18:23:09.920Z,10.80
2022-09-16T18:27:53.924Z,10.80
2022-09-16T18:32:45.115Z,10.90
2022-09-16T18:37:30.085Z,10.80
2022-09-16T18:42:19.180Z,10.90
2022-09-16T18:47:04.902Z,10.90
2022-09-16T18:52:15.046Z,10.80
2022-09-16T18:57:02.466Z,10.80
2022-09-16T19:01:49.016Z,10.80
2022-09-16T19:06:36.386Z,10.70
2022-09-16T19:11:22.780Z,10.90
2022-09-16T19:16:11.487Z,10.90
2022-09-16T19:21:00.718Z,11.00
2022-09-16T19:25:51.175Z,11.00
2022-09-16T19:30:37.280Z,11.00
2022-09-16T19:35:28.671Z,11.00
2022-09-16T19:40:40.974Z,10.90
2022-09-16T19:46:02.031Z,10.90
2022-09-16T19:50:53.651Z,10.90
2022-09-16T19:56:26.805Z,11.00
2022-09-16T20:01:34.798Z,11.00
2022-09-16T20:13:51.535Z,10.90
2022-09-16T20:24:27.601Z,10.70
2022-09-16T20:29:13.762Z,10.60
2022-09-16T20:40:32.069Z,10.50
2022-09-16T20:45:46.582Z,10.50
2022-09-16T20:50:38.016Z,10.50
2022-09-16T20:55:22.096Z,10.60
2022-09-16T21:00:10.432Z,10.50
2022-09-16T21:05:11.986Z,10.50
2022-09-16T21:10:16.436Z,10.40
2022-09-16T21:15:08.257Z,10.40
2022-09-16T21:20:15.665Z,10.40
2022-09-16T21:24:58.699Z,10.50
2022-09-16T21:29:52.215Z,10.40
2022-09-16T21:35:05.987Z,10.50
2022-09-16T21:39:53.277Z,10.40
2022-09-16T21:44:41.089Z,10.40
2022-09-16T21:49:30.619Z,10.40
2022-09-16T21:54:20.459Z,10.20
2022-09-16T21:59:08.276Z,10.10
2022-09-16T22:03:57.117Z,10.00
2022-09-16T22:08:48.781Z,9.90
2022-09-16T22:14:02.515Z,10.00
2022-09-16T22:18:49.377Z,9.90
2022-09-16T22:23:41.484Z,9.90
2022-09-16T22:28:44.868Z,9.90
2022-09-16T22:34:43.334Z,9.90
2022-09-16T22:40:34.284Z,9.90
2022-09-16T22:46:39.538Z,9.80
2022-09-16T22:51:50.072Z,9.80
2022-09-16T22:56:35.844Z,9.70
2022-09-16T23:01:21.820Z,9.60
2022-09-16T23:06:11.903Z,9.60
2022-09-16T23:10:57.194Z,9.60
2022-09-16T23:15:48.931Z,9.60
2022-09-16T23:20:46.229Z,9.60
2022-09-16T23:37:21.367Z,9.50
2022-09-16T23:42:22.099Z,9.50
2022-09-16T23:47:30.637Z,9.60
2022-09-16T23:52:50.347Z,9.70
2022-09-16T23:57:54.144Z,9.60
